createdAt,value
2022-12-27T00:00:28.898Z,2.20
2022-12-27T00:01:16.541Z,1.77
2022-12-27T00:02:00.536Z,0.47
2022-12-27T00:02:42.476Z,0.98
2022-12-27T00:03:24.072Z,0.65
2022-12-27T00:04:06.709Z,0.77
2022-12-27T00:04:48.578Z,0.30
2022-12-27T00:05:30.153Z,0.47
2022-12-27T00:06:15.543Z,1.40
2022-12-27T00:06:57.205Z,1.13
2022-12-27T00:07:38.844Z,1.40
2022-12-27T00:08:20.452Z,0.70
2022-12-27T00:09:03.530Z,0.40
2022-12-27T00:09:45.239Z,1.23
2022-12-27T00:10:26.916Z,0.45
2022-12-27T00:11:14.354Z,0.40
2022-12-27T00:11:59.746Z,0.55
2022-12-27T00:12:41.975Z,0.77
2022-12-27T00:13:24.093Z,0.85
2022-12-27T00:14:08.615Z,0.88
2022-12-27T00:14:50.213Z,0.30
2022-12-27T00:15:34.057Z,2.05
2022-12-27T00:16:18.347Z,0.45
2022-12-27T00:17:00.685Z,0.35
2022-12-27T00:17:42.439Z,0.32
2022-12-27T00:18:25.617Z,0.63
2022-12-27T00:19:07.284Z,2.10
2022-12-27T00:19:48.885Z,1.13
2022-12-27T00:20:30.507Z,4.53
2022-12-27T00:21:13.963Z,1.58
2022-12-27T00:21:55.674Z,1.67
2022-12-27T00:22:37.314Z,1.55
2022-12-27T00:23:18.917Z,0.50
2022-12-27T00:24:00.844Z,1.63
2022-12-27T00:24:42.497Z,0.85
2022-12-27T00:25:24.149Z,0.38
2022-12-27T00:26:13.514Z,0.90
2022-12-27T00:26:55.097Z,1.20
2022-12-27T00:27:39.373Z,0.82
2022-12-27T00:28:20.988Z,1.02
2022-12-27T00:29:03.160Z,1.48
2022-12-27T00:29:44.793Z,0.90
2022-12-27T00:30:26.489Z,0.88
2022-12-27T00:31:08.580Z,1.52
2022-12-27T00:31:50.425Z,1.20
2022-12-27T00:32:32.085Z,0.60
2022-12-27T00:33:13.654Z,0.43
2022-12-27T00:33:57.142Z,0.73
2022-12-27T00:34:38.730Z,2.63
2022-12-27T00:35:22.899Z,0.85
2022-12-27T00:36:06.738Z,0.77
2022-12-27T00:36:48.361Z,1.05
2022-12-27T00:37:30.012Z,1.30
2022-12-27T00:38:11.657Z,1.65
2022-12-27T00:38:54.610Z,0.65
2022-12-27T00:39:36.788Z,0.25
2022-12-27T00:40:18.427Z,0.20
2022-12-27T00:41:00.425Z,1.33
2022-12-27T00:41:42.212Z,0.30
2022-12-27T00:42:23.918Z,0.63
2022-12-27T00:43:05.533Z,0.50
2022-12-27T00:43:47.766Z,2.00
2022-12-27T00:44:29.368Z,0.75
2022-12-27T00:45:11.275Z,0.40
2022-12-27T00:45:53.269Z,1.05
2022-12-27T00:46:35.136Z,0.93
2022-12-27T00:47:16.748Z,1.50
2022-12-27T00:47:58.497Z,0.68
2022-12-27T00:48:40.279Z,0.52
2022-12-27T00:49:22.161Z,0.60
2022-12-27T00:50:04.699Z,0.52
2022-12-27T00:50:47.432Z,0.52
2022-12-27T00:51:29.363Z,0.22
2022-12-27T00:52:11.066Z,0.63
2022-12-27T00:52:52.648Z,0.90
2022-12-27T00:53:35.509Z,1.13
2022-12-27T00:54:17.176Z,0.52
2022-12-27T00:54:58.785Z,1.65
2022-12-27T00:55:43.974Z,0.68
2022-12-27T00:56:28.204Z,0.68
2022-12-27T00:57:09.795Z,0.47
2022-12-27T00:57:51.566Z,0.45
2022-12-27T00:58:37.095Z,0.30
2022-12-27T00:59:21.584Z,1.27
2022-12-27T01:00:10.195Z,1.42
2022-12-27T01:00:53.105Z,1.88
2022-12-27T01:01:36.066Z,0.30
2022-12-27T01:02:17.802Z,1.15
2022-12-27T01:02:59.477Z,0.88
2022-12-27T01:03:41.143Z,2.08
2022-12-27T01:04:22.728Z,1.40
2022-12-27T01:05:04.725Z,0.68
2022-12-27T01:05:46.345Z,0.98
2022-12-27T01:06:32.085Z,2.00
2022-12-27T01:07:13.700Z,1.90
2022-12-27T01:07:55.386Z,0.57
2022-12-27T01:08:37.551Z,0.77
2022-12-27T01:09:19.139Z,1.52
2022-12-27T01:10:00.782Z,0.68
2022-12-27T01:10:42.533Z,0.50
2022-12-27T01:11:26.094Z,0.50
2022-12-27T01:12:07.645Z,0.50
2022-12-27T01:12:49.858Z,0.45
2022-12-27T01:13:31.514Z,0.50
2022-12-27T01:14:13.931Z,0.77
2022-12-27T01:14:55.597Z,1.50
2022-12-27T01:15:37.315Z,1.67
2022-12-27T01:16:22.148Z,0.90
2022-12-27T01:17:03.869Z,0.77
2022-12-27T01:17:45.530Z,0.65
2022-12-27T01:18:27.294Z,0.80
2022-12-27T01:19:09.016Z,1.27
2022-12-27T01:19:50.632Z,1.05
2022-12-27T01:20:32.295Z,1.27
2022-12-27T01:21:15.708Z,0.30
2022-12-27T01:21:57.358Z,0.65
2022-12-27T01:22:39.020Z,0.60
2022-12-27T01:23:22.916Z,1.80
2022-12-27T01:24:06.561Z,1.63
2022-12-27T01:24:48.334Z,0.93
2022-12-27T01:25:30.037Z,0.32
2022-12-27T01:26:17.282Z,1.45
2022-12-27T01:26:58.913Z,1.55
2022-12-27T01:27:40.524Z,1.15
2022-12-27T01:28:22.129Z,0.47
2022-12-27T01:29:03.811Z,1.05
2022-12-27T01:29:45.440Z,0.47
2022-12-27T01:30:27.095Z,0.65
2022-12-27T01:31:11.666Z,1.55
2022-12-27T01:31:53.330Z,0.82
2022-12-27T01:32:35.171Z,1.30
2022-12-27T01:33:16.769Z,1.50
2022-12-27T01:34:00.266Z,0.80
2022-12-27T01:34:41.950Z,1.25
2022-12-27T01:35:24.081Z,0.30
2022-12-27T01:36:15.112Z,1.75
2022-12-27T01:36:56.767Z,1.25
2022-12-27T01:37:38.376Z,0.52
2022-12-27T01:38:20.010Z,0.40
2022-12-27T01:39:01.959Z,0.75
2022-12-27T01:39:43.557Z,0.55
2022-12-27T01:40:25.253Z,0.50
2022-12-27T01:41:26.799Z,0.88
2022-12-27T01:42:46.019Z,0.80
2022-12-27T01:43:38.163Z,0.45
2022-12-27T01:44:49.372Z,1.27
2022-12-27T01:45:36.545Z,0.55
2022-12-27T01:46:18.445Z,1.08
2022-12-27T01:47:01.245Z,0.90
2022-12-27T01:47:49.693Z,0.47
2022-12-27T01:48:31.283Z,0.28
2022-12-27T01:49:12.921Z,2.28
2022-12-27T01:50:00.689Z,1.70
2022-12-27T01:50:46.661Z,1.58
2022-12-27T01:51:31.263Z,0.55
2022-12-27T01:52:13.732Z,0.20
2022-12-27T01:53:19.329Z,1.48
2022-12-27T01:54:00.991Z,0.68
2022-12-27T01:54:43.340Z,0.70
2022-12-27T01:55:34.021Z,1.10
2022-12-27T01:56:24.235Z,1.00
2022-12-27T01:57:06.442Z,0.82
2022-12-27T01:57:50.204Z,2.00
2022-12-27T01:58:56.238Z,0.70
2022-12-27T01:59:38.703Z,0.60
2022-12-27T02:00:20.466Z,2.42
2022-12-27T02:01:04.838Z,1.42
2022-12-27T02:01:48.300Z,0.95
2022-12-27T02:02:30.074Z,0.77
2022-12-27T02:03:16.124Z,1.08
2022-12-27T02:04:02.947Z,1.77
2022-12-27T02:04:45.184Z,0.80
2022-12-27T02:05:27.186Z,0.50
2022-12-27T02:06:14.014Z,0.98
2022-12-27T02:06:55.630Z,1.48
2022-12-27T02:08:07.720Z,0.25
2022-12-27T02:08:55.563Z,0.85
2022-12-27T02:09:54.881Z,0.70
2022-12-27T02:10:40.282Z,0.95
2022-12-27T02:11:46.485Z,1.63
2022-12-27T02:12:28.809Z,3.67
2022-12-27T02:13:10.937Z,1.00
2022-12-27T02:13:52.684Z,0.50
2022-12-27T02:14:46.702Z,0.47
2022-12-27T02:15:28.797Z,0.90
2022-12-27T02:16:16.660Z,0.30
2022-12-27T02:17:02.861Z,1.13
2022-12-27T02:17:45.307Z,0.90
2022-12-27T02:18:26.996Z,1.23
2022-12-27T02:19:21.038Z,1.30
2022-12-27T02:20:14.338Z,1.05
2022-12-27T02:21:27.429Z,1.02
2022-12-27T02:22:17.784Z,0.90
2022-12-27T02:23:56.327Z,1.27
2022-12-27T02:25:20.107Z,0.90
2022-12-27T02:26:14.132Z,1.05
2022-12-27T02:27:07.775Z,1.85
2022-12-27T02:28:14.654Z,1.88
2022-12-27T02:29:07.842Z,0.68
2022-12-27T02:30:04.029Z,0.93
2022-12-27T02:30:48.471Z,0.88
2022-12-27T02:31:38.156Z,0.43
2022-12-27T02:32:29.530Z,1.50
2022-12-27T02:33:18.414Z,1.35
2022-12-27T02:34:08.581Z,0.60
2022-12-27T02:35:13.305Z,0.75
2022-12-27T02:36:02.781Z,1.23
2022-12-27T02:36:46.390Z,0.70
2022-12-27T02:37:31.694Z,1.60
2022-12-27T02:38:23.516Z,4.10
2022-12-27T02:39:05.546Z,3.38
2022-12-27T02:39:48.997Z,2.58
2022-12-27T02:40:53.157Z,1.58
2022-12-27T02:41:54.295Z,1.02
2022-12-27T02:42:54.637Z,1.15
2022-12-27T02:43:54.839Z,3.08
2022-12-27T02:44:55.447Z,1.75
2022-12-27T02:46:02.860Z,2.13
2022-12-27T02:47:04.135Z,1.08
2022-12-27T02:48:06.212Z,2.00
2022-12-27T02:49:14.670Z,1.00
2022-12-27T02:50:14.635Z,0.73
2022-12-27T02:51:25.783Z,0.32
2022-12-27T02:52:54.618Z,1.15
2022-12-27T02:53:57.329Z,1.40
2022-12-27T02:54:48.280Z,1.38
2022-12-27T02:55:40.082Z,0.73
2022-12-27T02:56:51.753Z,1.35
2022-12-27T02:57:47.112Z,1.67
2022-12-27T02:58:40.483Z,1.05
2022-12-27T03:00:04.389Z,0.90
2022-12-27T03:01:37.068Z,1.55
2022-12-27T03:02:50.217Z,0.75
2022-12-27T03:03:57.264Z,1.02
2022-12-27T03:04:41.856Z,1.65
2022-12-27T03:06:15.465Z,0.47
2022-12-27T03:07:25.242Z,2.72
2022-12-27T03:08:33.536Z,1.17
2022-12-27T03:09:46.437Z,1.15
2022-12-27T03:11:13.779Z,1.30
2022-12-27T03:12:14.212Z,0.50
2022-12-27T03:13:25.682Z,0.40
2022-12-27T03:14:45.381Z,1.77
2022-12-27T03:15:57.358Z,0.30
2022-12-27T03:16:55.793Z,0.95
2022-12-27T03:17:47.730Z,2.40
2022-12-27T03:18:36.690Z,1.65
2022-12-27T03:19:42.138Z,0.77
2022-12-27T03:20:42.712Z,0.80
2022-12-27T03:21:55.996Z,1.83
2022-12-27T03:22:59.671Z,0.63
2022-12-27T03:24:03.283Z,1.50
2022-12-27T03:25:03.738Z,0.50
2022-12-27T03:25:49.513Z,0.60
2022-12-27T03:26:34.724Z,1.10
2022-12-27T03:27:28.331Z,1.00
2022-12-27T03:28:55.267Z,1.13
2022-12-27T03:29:56.515Z,1.75
2022-12-27T03:30:58.695Z,2.40
2022-12-27T03:32:04.418Z,1.35
2022-12-27T03:33:10.855Z,0.40
2022-12-27T03:34:04.410Z,2.22
2022-12-27T03:34:58.234Z,1.50
2022-12-27T03:36:19.097Z,1.58
2022-12-27T03:37:23.400Z,0.73
2022-12-27T03:38:07.501Z,0.88
2022-12-27T03:39:19.337Z,1.38
2022-12-27T03:41:05.401Z,1.65
2022-12-27T03:42:12.321Z,1.20
2022-12-27T03:43:11.101Z,0.63
2022-12-27T03:43:52.813Z,1.00
2022-12-27T03:44:34.699Z,2.25
2022-12-27T03:45:21.564Z,1.83
2022-12-27T03:46:27.942Z,1.90
2022-12-27T03:47:18.345Z,1.42
2022-12-27T03:48:05.191Z,1.45
2022-12-27T03:49:04.156Z,1.30
2022-12-27T03:49:56.017Z,1.90
2022-12-27T03:50:44.631Z,1.15
2022-12-27T03:51:30.140Z,1.10
2022-12-27T03:52:26.958Z,0.93
2022-12-27T03:53:21.079Z,1.05
2022-12-27T03:54:10.579Z,1.98
2022-12-27T03:54:53.039Z,0.63
2022-12-27T03:55:34.869Z,1.58
2022-12-27T03:56:17.285Z,2.58
2022-12-27T03:57:09.455Z,1.35
2022-12-27T03:57:51.349Z,3.28
2022-12-27T03:58:33.121Z,0.80
2022-12-27T03:59:14.932Z,2.28
2022-12-27T03:59:56.962Z,2.42
2022-12-27T04:00:39.891Z,2.38
2022-12-27T04:01:21.643Z,0.45
2022-12-27T04:02:05.779Z,1.33
2022-12-27T04:02:48.086Z,2.97
2022-12-27T04:03:29.878Z,1.83
2022-12-27T04:04:11.552Z,1.85
2022-12-27T04:04:53.183Z,1.52
2022-12-27T04:05:34.733Z,1.42
2022-12-27T04:06:16.298Z,2.00
2022-12-27T04:06:57.969Z,1.20
2022-12-27T04:07:39.538Z,0.82
2022-12-27T04:08:39.996Z,1.25
2022-12-27T04:09:40.182Z,1.10
2022-12-27T04:10:40.112Z,0.88
2022-12-27T04:11:40.181Z,1.40
2022-12-27T04:12:40.664Z,1.13
2022-12-27T04:13:40.849Z,2.40
2022-12-27T04:14:44.137Z,0.38
2022-12-27T04:15:44.249Z,1.23
2022-12-27T04:16:44.580Z,1.60
2022-12-27T04:17:45.252Z,0.82
2022-12-27T04:18:45.369Z,1.67
2022-12-27T04:19:45.660Z,2.08
2022-12-27T04:20:45.928Z,2.53
2022-12-27T04:21:46.347Z,0.55
2022-12-27T04:22:46.639Z,3.55
2022-12-27T04:23:47.102Z,1.67
2022-12-27T04:24:47.108Z,1.70
2022-12-27T04:25:48.276Z,2.25
2022-12-27T04:26:48.737Z,2.22
2022-12-27T04:27:51.428Z,2.22
2022-12-27T04:28:51.800Z,2.35
2022-12-27T04:29:52.145Z,1.17
2022-12-27T04:30:52.594Z,1.20
2022-12-27T04:31:52.972Z,1.30
2022-12-27T04:32:53.339Z,3.00
2022-12-27T04:33:53.561Z,2.50
2022-12-27T04:34:44.170Z,2.22
2022-12-27T04:35:25.903Z,2.25
2022-12-27T04:36:08.075Z,2.22
2022-12-27T04:36:49.917Z,1.08
2022-12-27T04:37:31.541Z,1.00
2022-12-27T04:38:13.236Z,1.42
2022-12-27T04:38:54.950Z,0.90
2022-12-27T04:39:36.810Z,0.95
2022-12-27T04:40:37.226Z,2.30
2022-12-27T04:41:37.443Z,1.67
2022-12-27T04:42:38.683Z,1.80
2022-12-27T04:43:38.989Z,0.95
2022-12-27T04:44:55.791Z,2.05
2022-12-27T04:45:56.189Z,1.70
2022-12-27T04:46:56.593Z,1.05
2022-12-27T04:47:58.411Z,2.85
2022-12-27T04:48:58.383Z,2.25
2022-12-27T04:49:58.877Z,2.30
2022-12-27T04:50:58.825Z,1.17
2022-12-27T04:51:59.072Z,2.28
2022-12-27T04:52:59.185Z,1.88
2022-12-27T04:53:59.272Z,2.28
2022-12-27T04:54:59.419Z,2.47
2022-12-27T04:55:40.985Z,3.88
2022-12-27T04:56:22.564Z,2.72
2022-12-27T04:57:05.241Z,2.78
2022-12-27T04:57:46.949Z,1.45
2022-12-27T04:58:29.178Z,1.17
2022-12-27T04:59:29.367Z,1.48
2022-12-27T05:00:30.805Z,1.52
2022-12-27T05:01:31.024Z,1.42
2022-12-27T05:02:12.980Z,3.03
2022-12-27T05:02:55.257Z,2.17
2022-12-27T05:03:38.067Z,1.98
2022-12-27T05:04:19.820Z,1.63
2022-12-27T05:05:01.663Z,1.95
2022-12-27T05:05:43.723Z,3.33
2022-12-27T05:06:25.315Z,1.05
2022-12-27T05:07:46.326Z,2.15
2022-12-27T05:08:47.719Z,2.92
2022-12-27T05:09:47.919Z,1.58
2022-12-27T05:10:48.344Z,1.50
2022-12-27T05:11:48.474Z,2.75
2022-12-27T05:12:48.910Z,1.10
2022-12-27T05:13:49.274Z,1.60
2022-12-27T05:14:30.889Z,1.27
2022-12-27T05:15:12.491Z,2.33
2022-12-27T05:15:54.137Z,3.22
2022-12-27T05:16:39.738Z,3.28
2022-12-27T05:17:21.343Z,2.13
2022-12-27T05:18:03.591Z,2.22
2022-12-27T05:18:45.195Z,2.33
2022-12-27T05:19:26.814Z,2.25
2022-12-27T05:20:09.084Z,3.70
2022-12-27T05:20:50.777Z,3.45
2022-12-27T05:21:37.218Z,3.25
2022-12-27T05:22:37.403Z,1.52
2022-12-27T05:23:37.868Z,1.90
2022-12-27T05:24:37.738Z,1.65
2022-12-27T05:25:38.395Z,2.30
2022-12-27T05:26:26.116Z,2.30
2022-12-27T05:27:08.978Z,1.58
2022-12-27T05:27:50.543Z,1.90
2022-12-27T05:28:32.151Z,2.58
2022-12-27T05:29:13.898Z,3.73
2022-12-27T05:29:55.476Z,2.35
2022-12-27T05:30:38.841Z,2.03
2022-12-27T05:31:22.065Z,1.80
2022-12-27T05:32:08.074Z,2.60
2022-12-27T05:32:55.608Z,2.70
2022-12-27T05:33:37.248Z,1.73
2022-12-27T05:34:18.853Z,1.25
2022-12-27T05:35:00.470Z,2.58
2022-12-27T05:35:42.186Z,1.52
2022-12-27T05:36:24.422Z,2.33
2022-12-27T05:37:05.997Z,1.67
2022-12-27T05:37:51.534Z,1.35
2022-12-27T05:38:36.545Z,1.98
2022-12-27T05:39:18.158Z,3.10
2022-12-27T05:39:59.750Z,2.05
2022-12-27T05:40:41.361Z,1.88
2022-12-27T05:41:23.027Z,1.95
2022-12-27T05:42:04.853Z,1.85
2022-12-27T05:42:46.479Z,2.53
2022-12-27T05:43:28.878Z,2.20
2022-12-27T05:44:10.580Z,2.22
2022-12-27T05:44:52.128Z,1.40
2022-12-27T05:45:34.041Z,2.58
2022-12-27T05:46:18.936Z,4.95
2022-12-27T05:47:00.570Z,2.55
2022-12-27T05:47:42.437Z,4.25
2022-12-27T05:48:24.125Z,3.75
2022-12-27T05:49:05.779Z,5.65
2022-12-27T05:49:47.375Z,3.95
2022-12-27T05:50:29.022Z,3.45
2022-12-27T05:51:24.606Z,5.18
2022-12-27T05:52:06.239Z,3.78
2022-12-27T05:52:47.896Z,6.53
2022-12-27T05:53:29.507Z,3.63
2022-12-27T05:54:11.181Z,4.78
2022-12-27T05:54:52.739Z,2.95
2022-12-27T05:55:34.365Z,4.20
2022-12-27T05:56:18.716Z,2.78
2022-12-27T05:57:00.308Z,1.98
2022-12-27T05:57:41.925Z,2.55
2022-12-27T05:58:24.257Z,1.77
2022-12-27T05:59:07.937Z,3.63
2022-12-27T05:59:49.505Z,3.97
2022-12-27T06:00:31.450Z,4.60
2022-12-27T06:01:18.677Z,1.70
2022-12-27T06:02:01.131Z,1.73
2022-12-27T06:02:43.126Z,4.18
2022-12-27T06:03:25.079Z,2.13
2022-12-27T06:04:06.763Z,2.15
2022-12-27T06:04:48.373Z,2.28
2022-12-27T06:05:29.989Z,1.90
2022-12-27T06:06:12.349Z,2.50
2022-12-27T06:06:53.979Z,2.40
2022-12-27T06:07:37.228Z,2.33
2022-12-27T06:08:19.011Z,2.55
2022-12-27T06:09:00.679Z,2.47
2022-12-27T06:09:42.535Z,1.70
2022-12-27T06:10:24.137Z,3.40
2022-12-27T06:11:07.817Z,1.88
2022-12-27T06:11:49.462Z,2.05
2022-12-27T06:12:31.074Z,4.03
2022-12-27T06:13:12.707Z,1.80
2022-12-27T06:13:54.570Z,1.80
2022-12-27T06:14:36.191Z,2.30
2022-12-27T06:15:17.843Z,1.55
2022-12-27T06:16:01.278Z,1.33
2022-12-27T06:16:43.319Z,2.47
2022-12-27T06:17:25.004Z,2.97
2022-12-27T06:18:06.743Z,2.00
2022-12-27T06:18:49.426Z,2.58
2022-12-27T06:19:31.019Z,1.92
2022-12-27T06:20:12.617Z,1.83
2022-12-27T06:20:54.207Z,1.67
2022-12-27T06:21:35.855Z,2.47
2022-12-27T06:22:17.443Z,1.75
2022-12-27T06:23:00.255Z,3.38
2022-12-27T06:23:47.540Z,2.83
2022-12-27T06:24:29.124Z,1.50
2022-12-27T06:25:14.366Z,3.08
2022-12-27T06:25:56.417Z,2.83
2022-12-27T06:26:38.032Z,1.80
2022-12-27T06:27:19.616Z,3.35
2022-12-27T06:28:01.237Z,2.10
2022-12-27T06:28:43.210Z,2.22
2022-12-27T06:29:24.783Z,2.17
2022-12-27T06:30:07.815Z,2.45
2022-12-27T06:30:50.544Z,2.40
2022-12-27T06:31:32.345Z,1.73
2022-12-27T06:32:15.929Z,4.05
2022-12-27T06:32:57.588Z,1.90
2022-12-27T06:33:39.385Z,3.72
2022-12-27T06:34:20.966Z,2.47
2022-12-27T06:35:02.684Z,2.83
2022-12-27T06:35:44.305Z,3.05
2022-12-27T06:36:27.582Z,3.13
2022-12-27T06:37:09.285Z,3.33
2022-12-27T06:37:50.886Z,2.95
2022-12-27T06:38:32.498Z,3.25
2022-12-27T06:39:14.120Z,4.05
2022-12-27T06:39:57.175Z,2.45
2022-12-27T06:40:38.993Z,4.95
2022-12-27T06:41:20.625Z,3.83
2022-12-27T06:42:02.256Z,2.50
2022-12-27T06:42:43.843Z,2.50
2022-12-27T06:43:25.480Z,2.42
2022-12-27T06:44:07.683Z,3.55
2022-12-27T06:44:49.277Z,3.28
2022-12-27T06:45:31.021Z,5.43
2022-12-27T06:46:17.750Z,4.28
2022-12-27T06:47:00.096Z,4.35
2022-12-27T06:47:41.715Z,4.72
2022-12-27T06:48:23.967Z,4.10
2022-12-27T06:49:05.652Z,3.28
2022-12-27T06:49:47.265Z,4.05
2022-12-27T06:50:28.900Z,4.50
2022-12-27T06:51:12.186Z,2.42
2022-12-27T06:51:59.282Z,3.58
2022-12-27T06:52:41.443Z,2.67
2022-12-27T06:53:23.374Z,2.08
2022-12-27T06:54:05.022Z,3.97
2022-12-27T06:54:46.840Z,4.55
2022-12-27T06:55:28.453Z,3.22
2022-12-27T06:56:12.540Z,5.60
2022-12-27T06:56:56.743Z,2.75
2022-12-27T06:57:38.383Z,4.55
2022-12-27T06:58:20.650Z,4.25
2022-12-27T06:59:02.423Z,5.35
2022-12-27T06:59:46.044Z,4.40
2022-12-27T07:00:31.073Z,7.68
2022-12-27T07:01:12.757Z,9.10
2022-12-27T07:01:54.709Z,9.10
2022-12-27T07:02:38.039Z,6.03
2022-12-27T07:03:19.841Z,5.57
2022-12-27T07:04:01.771Z,5.28
2022-12-27T07:04:43.454Z,4.90
2022-12-27T07:05:25.105Z,3.58
2022-12-27T07:06:09.136Z,2.95
2022-12-27T07:06:50.773Z,2.40
2022-12-27T07:07:32.437Z,4.18
2022-12-27T07:08:14.181Z,3.90
2022-12-27T07:08:56.911Z,4.15
2022-12-27T07:09:38.549Z,4.03
2022-12-27T07:10:20.398Z,3.03
2022-12-27T07:11:07.912Z,3.88
2022-12-27T07:11:50.161Z,5.90
2022-12-27T07:12:36.402Z,9.68
2022-12-27T07:13:18.412Z,4.93
2022-12-27T07:14:00.065Z,3.78
2022-12-27T07:14:41.654Z,3.65
2022-12-27T07:15:23.618Z,5.18
2022-12-27T07:16:07.330Z,3.78
2022-12-27T07:16:49.910Z,3.65
2022-12-27T07:17:31.546Z,3.72
2022-12-27T07:18:13.254Z,3.35
2022-12-27T07:18:56.997Z,4.45
2022-12-27T07:19:38.828Z,4.05
2022-12-27T07:20:20.521Z,3.70
2022-12-27T07:21:07.557Z,3.13
2022-12-27T07:21:49.173Z,3.10
2022-12-27T07:22:31.023Z,4.43
2022-12-27T07:23:19.248Z,3.80
2022-12-27T07:24:01.234Z,4.28
2022-12-27T07:24:42.852Z,5.90
2022-12-27T07:25:24.425Z,5.10
2022-12-27T07:26:08.950Z,4.00
2022-12-27T07:26:50.509Z,4.00
2022-12-27T07:27:36.591Z,4.28
2022-12-27T07:28:18.212Z,4.72
2022-12-27T07:29:01.999Z,5.20
2022-12-27T07:29:45.724Z,4.13
2022-12-27T07:30:29.346Z,5.35
2022-12-27T07:31:20.310Z,5.38
2022-12-27T07:32:02.059Z,4.10
2022-12-27T07:32:43.684Z,5.00
2022-12-27T07:33:25.400Z,6.65
2022-12-27T07:34:07.106Z,6.07
2022-12-27T07:34:48.708Z,4.90
2022-12-27T07:35:30.576Z,4.15
2022-12-27T07:36:15.436Z,3.60
2022-12-27T07:36:57.049Z,4.18
2022-12-27T07:37:38.609Z,4.82
2022-12-27T07:38:20.212Z,6.40
2022-12-27T07:39:02.056Z,4.88
2022-12-27T07:39:45.071Z,4.88
2022-12-27T07:40:26.732Z,6.20
2022-12-27T07:41:10.318Z,4.65
2022-12-27T07:41:52.013Z,3.92
2022-12-27T07:42:33.715Z,4.35
2022-12-27T07:43:15.337Z,4.80
2022-12-27T07:43:57.100Z,7.05
2022-12-27T07:44:38.879Z,4.57
2022-12-27T07:45:20.516Z,3.92
2022-12-27T07:46:16.667Z,4.47
2022-12-27T07:46:58.297Z,4.53
2022-12-27T07:47:40.609Z,4.05
2022-12-27T07:48:22.197Z,4.15
2022-12-27T07:49:03.910Z,5.82
2022-12-27T07:49:45.584Z,3.60
2022-12-27T07:50:27.163Z,3.05
2022-12-27T07:51:08.997Z,3.80
2022-12-27T07:51:50.652Z,4.35
2022-12-27T07:52:32.216Z,4.30
2022-12-27T07:53:13.788Z,4.65
2022-12-27T07:53:55.610Z,4.82
2022-12-27T07:54:37.254Z,3.08
2022-12-27T07:55:18.857Z,5.03
2022-12-27T07:56:06.969Z,3.78
2022-12-27T07:56:48.604Z,3.42
2022-12-27T07:57:30.255Z,2.97
2022-12-27T07:58:11.881Z,4.25
2022-12-27T07:58:56.177Z,5.97
2022-12-27T07:59:37.974Z,5.95
2022-12-27T08:00:19.887Z,7.00
2022-12-27T08:01:03.587Z,4.75
2022-12-27T08:02:03.806Z,4.22
2022-12-27T08:02:47.324Z,3.78
2022-12-27T08:03:28.963Z,4.07
2022-12-27T08:04:10.772Z,3.67
2022-12-27T08:04:52.402Z,6.53
2022-12-27T08:05:34.063Z,4.05
2022-12-27T08:06:29.825Z,5.75
2022-12-27T08:07:18.455Z,2.97
2022-12-27T08:08:02.427Z,5.90
2022-12-27T08:08:45.112Z,7.65
2022-12-27T08:09:32.002Z,6.97
2022-12-27T08:10:13.666Z,8.27
2022-12-27T08:10:58.261Z,7.93
2022-12-27T08:11:42.277Z,12.48
2022-12-27T08:12:23.964Z,12.65
2022-12-27T08:13:05.553Z,14.52
2022-12-27T08:13:47.844Z,11.25
2022-12-27T08:14:29.479Z,16.80
2022-12-27T08:15:12.313Z,17.52
2022-12-27T08:15:55.093Z,14.90
2022-12-27T08:16:36.981Z,13.85
2022-12-27T08:17:27.089Z,11.57
2022-12-27T08:18:08.881Z,12.70
2022-12-27T08:18:50.969Z,12.52
2022-12-27T08:19:32.715Z,12.65
2022-12-27T08:20:14.681Z,12.15
2022-12-27T08:20:56.384Z,12.38
2022-12-27T08:21:38.314Z,12.32
2022-12-27T08:22:20.974Z,13.40
2022-12-27T08:23:02.795Z,16.20
2022-12-27T08:23:44.677Z,20.13
2022-12-27T08:24:26.338Z,16.63
2022-12-27T08:25:08.422Z,16.50
2022-12-27T08:25:50.090Z,15.82
2022-12-27T08:26:31.783Z,15.20
2022-12-27T08:27:13.461Z,13.15
2022-12-27T08:28:05.976Z,12.68
2022-12-27T08:28:47.612Z,11.52
2022-12-27T08:29:29.271Z,11.18
2022-12-27T08:30:11.223Z,10.13
2022-12-27T08:30:52.856Z,10.15
2022-12-27T08:31:34.594Z,7.53
2022-12-27T08:32:16.685Z,7.25
2022-12-27T08:32:58.393Z,7.97
2022-12-27T08:33:41.838Z,8.07
2022-12-27T08:34:23.435Z,10.00
2022-12-27T08:35:33.395Z,7.65
2022-12-27T08:36:45.068Z,7.93
2022-12-27T08:37:10.776Z,7.22
2022-12-27T08:37:52.518Z,7.05
2022-12-27T08:38:34.735Z,9.70
2022-12-27T08:39:16.389Z,7.88
2022-12-27T08:40:02.642Z,7.43
2022-12-27T08:40:46.265Z,7.28
2022-12-27T08:41:27.923Z,5.90
2022-12-27T08:42:13.059Z,6.68
2022-12-27T08:42:54.691Z,6.03
2022-12-27T08:43:36.393Z,4.82
2022-12-27T08:44:18.023Z,7.70
2022-12-27T08:44:59.884Z,5.78
2022-12-27T08:45:41.692Z,4.55
2022-12-27T08:46:23.412Z,4.90
2022-12-27T08:47:05.646Z,5.30
2022-12-27T08:47:47.324Z,4.65
2022-12-27T08:48:31.248Z,5.22
2022-12-27T08:49:13.010Z,5.13
2022-12-27T08:49:54.625Z,3.05
2022-12-27T08:50:36.329Z,4.95
2022-12-27T08:51:31.382Z,2.50
2022-12-27T08:52:17.499Z,3.58
2022-12-27T08:53:01.051Z,6.22
2022-12-27T08:53:42.670Z,6.15
2022-12-27T08:54:24.364Z,9.35
2022-12-27T08:55:06.579Z,6.60
2022-12-27T08:55:48.231Z,4.68
2022-12-27T08:56:29.868Z,2.03
2022-12-27T08:57:11.600Z,1.77
2022-12-27T08:58:13.820Z,2.90
2022-12-27T08:58:57.557Z,1.90
2022-12-27T08:59:39.189Z,3.08
2022-12-27T09:00:20.851Z,3.42
2022-12-27T09:01:10.129Z,3.35
2022-12-27T09:01:51.906Z,2.67
2022-12-27T09:02:33.800Z,2.38
2022-12-27T09:03:19.219Z,2.28
2022-12-27T09:04:00.933Z,4.57
2022-12-27T09:04:42.615Z,3.45
2022-12-27T09:05:26.247Z,1.65
2022-12-27T09:06:15.374Z,2.67
2022-12-27T09:06:57.280Z,1.85
2022-12-27T09:07:38.872Z,2.17
2022-12-27T09:08:20.475Z,1.20
2022-12-27T09:09:02.148Z,3.20
2022-12-27T09:09:43.992Z,1.85
2022-12-27T09:10:25.620Z,2.88
2022-12-27T09:11:13.128Z,2.55
2022-12-27T09:11:54.795Z,2.42
2022-12-27T09:12:36.782Z,2.88
2022-12-27T09:13:18.513Z,1.15
2022-12-27T09:14:02.568Z,3.67
2022-12-27T09:14:44.220Z,2.20
2022-12-27T09:15:25.959Z,2.70
2022-12-27T09:16:14.175Z,3.88
2022-12-27T09:16:56.148Z,1.55
2022-12-27T09:17:38.393Z,1.67
2022-12-27T09:18:20.016Z,1.85
2022-12-27T09:19:02.807Z,1.17
2022-12-27T09:19:44.487Z,4.53
2022-12-27T09:20:26.233Z,2.38
2022-12-27T09:21:13.406Z,2.40
2022-12-27T09:21:55.046Z,1.25
2022-12-27T09:22:37.329Z,1.20
2022-12-27T09:23:19.092Z,2.45
2022-12-27T09:24:01.023Z,2.65
2022-12-27T09:24:42.668Z,4.10
2022-12-27T09:25:24.236Z,1.42
2022-12-27T09:26:14.261Z,4.78
2022-12-27T09:26:56.023Z,2.35
2022-12-27T09:27:38.393Z,3.17
2022-12-27T09:28:19.993Z,5.95
2022-12-27T09:29:02.070Z,3.13
2022-12-27T09:29:48.248Z,2.35
2022-12-27T09:30:30.370Z,2.70
2022-12-27T09:31:13.190Z,2.83
2022-12-27T09:31:54.877Z,2.83
2022-12-27T09:32:36.525Z,3.33
2022-12-27T09:33:18.204Z,3.42
2022-12-27T09:33:59.888Z,3.17
2022-12-27T09:34:41.670Z,3.45
2022-12-27T09:35:23.288Z,1.80
2022-12-27T09:36:16.720Z,1.30
2022-12-27T09:36:58.413Z,2.60
2022-12-27T09:37:39.999Z,2.53
2022-12-27T09:38:21.736Z,1.33
2022-12-27T09:39:03.369Z,2.08
2022-12-27T09:39:45.002Z,2.13
2022-12-27T09:40:26.608Z,2.97
2022-12-27T09:42:25.158Z,2.58
2022-12-27T09:43:04.689Z,4.35
2022-12-27T09:44:03.324Z,2.05
2022-12-27T09:45:00.439Z,2.22
2022-12-27T09:45:46.982Z,2.03
2022-12-27T09:46:39.179Z,2.92
2022-12-27T09:47:28.616Z,3.63
2022-12-27T09:48:36.857Z,5.38
2022-12-27T09:49:29.987Z,3.15
2022-12-27T09:50:23.931Z,1.75
2022-12-27T09:51:08.406Z,2.22
2022-12-27T09:52:00.220Z,2.35
2022-12-27T09:53:01.728Z,3.80
2022-12-27T09:53:43.308Z,1.42
2022-12-27T09:54:45.671Z,2.25
2022-12-27T09:56:04.333Z,2.25
2022-12-27T09:57:18.377Z,4.28
2022-12-27T09:57:52.289Z,2.30
2022-12-27T09:58:33.855Z,3.58
2022-12-27T09:59:34.119Z,3.05
2022-12-27T10:00:30.192Z,3.42
2022-12-27T10:01:33.955Z,2.40
2022-12-27T10:02:24.612Z,1.73
2022-12-27T10:03:06.999Z,1.77
2022-12-27T10:03:49.250Z,1.63
2022-12-27T10:05:09.918Z,1.63
2022-12-27T10:05:39.650Z,3.60
2022-12-27T10:06:33.373Z,4.40
2022-12-27T10:07:28.410Z,2.78
2022-12-27T10:08:12.874Z,2.92
2022-12-27T10:09:28.070Z,4.53
2022-12-27T10:10:35.355Z,1.92
2022-12-27T10:11:36.345Z,3.08
2022-12-27T10:12:41.047Z,1.98
2022-12-27T10:13:42.998Z,1.05
2022-12-27T10:14:39.010Z,3.38
2022-12-27T10:15:24.808Z,3.08
2022-12-27T10:16:15.232Z,1.20
2022-12-27T10:17:11.451Z,2.83
2022-12-27T10:17:59.242Z,3.28
2022-12-27T10:19:08.762Z,1.50
2022-12-27T10:20:17.234Z,2.63
2022-12-27T10:21:19.347Z,1.30
2022-12-27T10:22:18.855Z,1.92
2022-12-27T10:23:06.643Z,4.15
2022-12-27T10:24:23.872Z,3.28
2022-12-27T10:25:13.817Z,1.85
2022-12-27T10:26:01.136Z,1.73
2022-12-27T10:26:43.675Z,2.35
2022-12-27T10:27:28.757Z,2.88
2022-12-27T10:28:45.660Z,3.45
2022-12-27T10:29:28.792Z,1.42
2022-12-27T10:30:16.151Z,2.75
2022-12-27T10:31:02.979Z,3.30